createdAt,value
2023-03-27T00:01:59.022Z,19.10
2023-03-27T00:04:55.812Z,19.10
2023-03-27T00:07:49.657Z,19.10
2023-03-27T00:10:42.949Z,19.10
2023-03-27T00:13:36.311Z,19.10
2023-03-27T00:16:42.090Z,19.10
2023-03-27T00:19:36.356Z,19.10
2023-03-27T00:22:31.617Z,19.10
2023-03-27T00:25:27.924Z,19.10
2023-03-27T00:28:20.983Z,19.10
2023-03-27T00:31:15.929Z,19.10
2023-03-27T00:34:09.356Z,19.10
2023-03-27T00:37:04.635Z,19.10
2023-03-27T00:39:59.756Z,19.00
2023-03-27T00:42:57.555Z,19.00
2023-03-27T00:45:55.867Z,19.00
2023-03-27T00:48:52.633Z,19.00
2023-03-27T00:51:48.442Z,19.00
2023-03-27T00:54:42.685Z,19.00
2023-03-27T00:57:37.935Z,19.00
2023-03-27T01:00:32.222Z,19.00
2023-03-27T01:03:27.373Z,19.00
2023-03-27T01:06:22.756Z,19.00
2023-03-27T01:09:20.909Z,19.00
2023-03-27T01:12:24.520Z,19.00
2023-03-27T01:15:33.722Z,19.00
2023-03-27T01:18:40.514Z,19.00
2023-03-27T01:22:01.249Z,19.00
2023-03-27T01:25:27.328Z,19.00
2023-03-27T01:28:34.129Z,18.90
2023-03-27T01:31:44.873Z,19.00
2023-03-27T01:35:01.847Z,19.00
2023-03-27T01:38:22.369Z,19.00
2023-03-27T01:41:20.492Z,18.90
2023-03-27T01:44:18.018Z,18.90
2023-03-27T01:47:21.306Z,18.90
2023-03-27T01:50:21.684Z,18.90
2023-03-27T01:53:18.149Z,18.90
2023-03-27T01:56:18.246Z,18.90
2023-03-27T01:59:17.327Z,18.90
2023-03-27T02:02:12.761Z,18.90
2023-03-27T02:05:11.003Z,18.90
2023-03-27T02:08:11.548Z,18.90
2023-03-27T02:11:05.541Z,18.90
2023-03-27T02:14:02.559Z,18.90
2023-03-27T02:17:01.240Z,18.90
2023-03-27T02:19:59.210Z,18.90
2023-03-27T02:22:53.891Z,18.80
2023-03-27T02:25:47.854Z,18.80
2023-03-27T02:29:01.600Z,18.80
2023-03-27T02:32:08.930Z,18.80
2023-03-27T02:35:22.865Z,18.80
2023-03-27T02:38:23.466Z,18.80
2023-03-27T02:41:23.705Z,18.80
2023-03-27T02:44:29.703Z,18.80
2023-03-27T02:47:29.565Z,18.80
2023-03-27T02:50:27.606Z,18.80
2023-03-27T02:53:24.771Z,18.70
2023-03-27T02:56:21.047Z,18.70
2023-03-27T02:59:18.185Z,18.70
2023-03-27T03:02:17.051Z,18.70
2023-03-27T03:05:17.671Z,18.70
2023-03-27T03:08:11.758Z,18.70
2023-03-27T03:11:07.894Z,18.70
2023-03-27T03:14:01.131Z,18.70
2023-03-27T03:16:54.251Z,18.70
2023-03-27T03:19:47.250Z,18.70
2023-03-27T03:22:42.138Z,18.70
2023-03-27T03:25:35.352Z,18.70
2023-03-27T03:28:28.037Z,18.70
2023-03-27T03:31:22.457Z,18.70
2023-03-27T03:34:18.585Z,18.70
2023-03-27T03:37:12.234Z,18.70
2023-03-27T03:40:11.625Z,18.70
2023-03-27T03:43:04.978Z,18.70
2023-03-27T03:45:58.439Z,18.70
2023-03-27T03:48:51.301Z,18.70
2023-03-27T03:51:44.181Z,18.60
2023-03-27T03:54:38.555Z,18.70
2023-03-27T03:57:33.589Z,18.70
2023-03-27T04:00:28.215Z,18.60
2023-03-27T04:03:21.309Z,18.60
2023-03-27T04:06:13.984Z,18.60
2023-03-27T04:09:07.489Z,18.60
2023-03-27T04:12:00.206Z,18.60
2023-03-27T04:14:55.297Z,18.60
2023-03-27T04:17:48.875Z,18.60
2023-03-27T04:20:42.257Z,18.60
2023-03-27T04:23:35.303Z,18.60
2023-03-27T04:26:28.471Z,18.60
2023-03-27T04:29:22.273Z,18.60
2023-03-27T04:32:19.237Z,18.60
2023-03-27T04:35:12.231Z,18.60
2023-03-27T04:38:05.427Z,18.60
2023-03-27T04:40:58.745Z,18.60
2023-03-27T04:43:52.260Z,18.60
2023-03-27T04:46:45.573Z,18.60
2023-03-27T04:49:43.721Z,18.60
2023-03-27T04:52:37.176Z,18.60
2023-03-27T04:55:30.505Z,18.50
2023-03-27T04:58:23.909Z,18.50
2023-03-27T05:01:17.807Z,18.50
2023-03-27T05:04:11.338Z,18.50
2023-03-27T05:07:05.838Z,18.50
2023-03-27T05:09:59.262Z,18.50
2023-03-27T05:12:55.814Z,18.50
2023-03-27T05:15:50.715Z,18.50
2023-03-27T05:18:45.172Z,18.50
2023-03-27T05:21:38.098Z,18.50
2023-03-27T05:24:32.863Z,18.50
2023-03-27T05:27:26.216Z,18.50
2023-03-27T05:30:21.726Z,18.50
2023-03-27T05:33:16.361Z,18.50
2023-03-27T05:36:10.367Z,18.50
2023-03-27T05:39:04.083Z,18.50
2023-03-27T05:41:58.907Z,18.50
2023-03-27T05:44:52.357Z,18.50
2023-03-27T05:47:46.908Z,18.50
2023-03-27T05:50:40.281Z,18.50
2023-03-27T05:53:33.757Z,18.50
2023-03-27T05:56:28.025Z,18.50
2023-03-27T05:59:23.250Z,18.50
2023-03-27T06:02:19.920Z,18.50
2023-03-27T06:05:15.634Z,18.50
2023-03-27T06:08:10.956Z,18.50
2023-03-27T06:11:09.673Z,18.40
2023-03-27T06:14:03.996Z,18.50
2023-03-27T06:16:58.909Z,18.40
2023-03-27T06:19:52.554Z,18.40
2023-03-27T06:22:47.219Z,18.40
2023-03-27T06:25:40.245Z,18.40
2023-03-27T06:28:33.352Z,18.40
2023-03-27T06:31:27.287Z,18.40
2023-03-27T06:34:21.913Z,18.40
2023-03-27T06:37:15.241Z,18.40
2023-03-27T06:40:10.547Z,18.40
2023-03-27T06:43:05.759Z,18.50
2023-03-27T06:46:00.141Z,18.50
2023-03-27T06:48:53.387Z,18.60
2023-03-27T06:51:47.578Z,18.70
2023-03-27T06:54:40.476Z,18.70
2023-03-27T06:57:33.217Z,18.90
2023-03-27T07:00:29.052Z,19.00
2023-03-27T07:03:23.310Z,19.00
2023-03-27T07:06:19.183Z,19.10
2023-03-27T07:09:14.489Z,19.20
2023-03-27T07:12:08.827Z,19.30
2023-03-27T07:15:02.769Z,19.40
2023-03-27T07:17:57.397Z,19.50
2023-03-27T07:20:51.358Z,19.60
2023-03-27T07:23:45.548Z,19.70
2023-03-27T07:26:39.639Z,19.70
2023-03-27T07:29:32.923Z,19.80
2023-03-27T07:32:36.774Z,19.90
2023-03-27T07:35:31.139Z,19.90
2023-03-27T07:38:24.631Z,20.00
2023-03-27T07:41:17.419Z,20.10
2023-03-27T07:44:12.126Z,20.20
2023-03-27T07:47:05.530Z,20.30
2023-03-27T07:49:58.225Z,20.30
2023-03-27T07:52:51.481Z,20.40
2023-03-27T07:55:45.118Z,20.40
2023-03-27T07:58:38.819Z,20.50
2023-03-27T08:01:34.175Z,20.60
2023-03-27T08:04:27.646Z,20.60
2023-03-27T08:07:21.671Z,20.80
2023-03-27T08:10:15.780Z,20.90
2023-03-27T08:13:10.051Z,21.00
2023-03-27T08:16:05.041Z,21.20
2023-03-27T08:19:00.749Z,21.30
2023-03-27T08:21:54.118Z,21.40
2023-03-27T08:24:47.730Z,21.60
2023-03-27T08:27:41.228Z,21.70
2023-03-27T08:30:35.329Z,21.80
2023-03-27T08:33:28.816Z,22.00
2023-03-27T08:36:23.654Z,22.10
2023-03-27T08:39:16.480Z,22.20
2023-03-27T08:42:19.045Z,22.30
2023-03-27T08:45:20.588Z,22.30
2023-03-27T08:48:18.426Z,22.40
2023-03-27T08:51:17.803Z,22.50
2023-03-27T08:54:20.170Z,22.50
2023-03-27T08:57:19.649Z,22.50
2023-03-27T09:00:22.830Z,22.50
2023-03-27T09:03:23.008Z,22.50
2023-03-27T09:06:25.771Z,22.50
2023-03-27T09:09:33.332Z,22.50
2023-03-27T09:12:40.843Z,22.50
2023-03-27T09:15:39.509Z,22.50
2023-03-27T09:18:36.641Z,22.60
2023-03-27T09:21:36.010Z,22.60
2023-03-27T09:24:34.887Z,22.60
2023-03-27T09:27:32.452Z,22.60
2023-03-27T09:30:28.656Z,22.70
2023-03-27T09:33:21.908Z,22.70
2023-03-27T09:36:15.718Z,22.70
2023-03-27T09:39:13.344Z,22.70
2023-03-27T09:42:16.957Z,22.80
2023-03-27T09:45:13.673Z,22.80
2023-03-27T09:48:12.046Z,22.90
2023-03-27T09:51:06.217Z,22.90
2023-03-27T09:53:59.866Z,22.90
2023-03-27T09:56:59.627Z,23.00
2023-03-27T10:00:01.188Z,23.00
2023-03-27T10:03:01.876Z,23.00
2023-03-27T10:06:07.017Z,23.00
2023-03-27T10:09:01.948Z,23.00
2023-03-27T10:12:09.104Z,23.20
2023-03-27T10:15:05.815Z,23.20
2023-03-27T10:17:59.693Z,23.20
2023-03-27T10:20:53.851Z,23.20
2023-03-27T10:23:49.879Z,23.20
2023-03-27T10:26:44.174Z,23.20
2023-03-27T10:29:40.995Z,23.30
2023-03-27T10:32:46.816Z,23.30
2023-03-27T10:35:44.448Z,23.30
2023-03-27T10:38:39.521Z,23.30
2023-03-27T10:41:37.035Z,23.40
2023-03-27T10:44:30.716Z,23.40
2023-03-27T10:47:26.195Z,23.40
2023-03-27T10:50:29.314Z,23.40
2023-03-27T10:53:29.550Z,23.50
2023-03-27T10:56:27.727Z,23.50
2023-03-27T10:59:40.644Z,23.50
2023-03-27T11:02:40.787Z,23.50
2023-03-27T11:05:39.656Z,23.50
2023-03-27T11:08:37.211Z,23.50
2023-03-27T11:11:36.652Z,23.60
2023-03-27T11:14:33.348Z,23.60
2023-03-27T11:17:32.805Z,23.60
2023-03-27T11:20:32.202Z,23.80
2023-03-27T11:23:32.346Z,23.80
2023-03-27T11:26:29.634Z,23.80
2023-03-27T11:29:28.373Z,23.80
2023-03-27T11:32:29.833Z,23.80
2023-03-27T11:35:27.716Z,23.80
2023-03-27T11:38:27.264Z,23.80
2023-03-27T11:41:22.125Z,23.90
2023-03-27T11:44:15.503Z,23.80
2023-03-27T11:47:26.119Z,23.80
2023-03-27T11:50:30.898Z,23.70
2023-03-27T11:53:52.091Z,23.60
2023-03-27T11:56:54.363Z,23.60
2023-03-27T12:00:16.325Z,23.50
2023-03-27T12:03:36.680Z,23.40
2023-03-27T12:06:34.321Z,23.30
2023-03-27T12:09:47.086Z,23.20
2023-03-27T12:13:40.659Z,23.10
2023-03-27T12:17:11.121Z,23.10
2023-03-27T12:20:32.535Z,23.00
2023-03-27T12:23:49.476Z,23.00
2023-03-27T12:27:01.599Z,23.00
2023-03-27T12:30:14.364Z,23.10
2023-03-27T12:33:30.672Z,23.10
2023-03-27T12:36:27.153Z,23.10
2023-03-27T12:39:24.298Z,23.10
2023-03-27T12:42:44.057Z,23.10
2023-03-27T12:45:50.970Z,23.20
2023-03-27T12:48:52.740Z,23.20
2023-03-27T12:51:48.366Z,23.20
2023-03-27T12:54:42.363Z,23.20
2023-03-27T12:57:44.236Z,23.20
2023-03-27T13:00:38.872Z,23.20
2023-03-27T13:03:59.169Z,23.30
2023-03-27T13:07:01.050Z,23.30
2023-03-27T13:10:06.999Z,23.30
2023-03-27T13:13:25.301Z,23.30
2023-03-27T13:16:35.091Z,23.30
2023-03-27T13:19:39.579Z,23.30
2023-03-27T13:22:47.194Z,23.30
2023-03-27T13:25:50.925Z,23.30
2023-03-27T13:28:49.899Z,23.20
2023-03-27T13:32:03.952Z,23.20
2023-03-27T13:35:32.785Z,23.20
2023-03-27T13:38:44.120Z,23.20
2023-03-27T13:41:52.121Z,23.10
2023-03-27T13:44:58.689Z,23.00
2023-03-27T13:48:12.872Z,22.90
2023-03-27T13:51:29.073Z,22.90
2023-03-27T13:55:10.588Z,22.80
2023-03-27T13:58:27.281Z,22.80
2023-03-27T14:01:37.237Z,22.70
2023-03-27T14:04:54.524Z,22.60
2023-03-27T14:08:01.889Z,22.60
2023-03-27T14:11:11.816Z,22.60
2023-03-27T14:14:35.102Z,22.60
2023-03-27T14:17:54.295Z,22.50
2023-03-27T14:20:51.175Z,22.50
2023-03-27T14:23:50.268Z,22.40
2023-03-27T14:26:45.436Z,22.40
2023-03-27T14:29:38.716Z,22.30
2023-03-27T14:32:32.939Z,22.30
2023-03-27T14:35:35.962Z,22.20
2023-03-27T14:38:33.661Z,22.20
2023-03-27T14:41:26.910Z,22.20
2023-03-27T14:44:20.461Z,22.20
2023-03-27T14:47:17.532Z,22.10
2023-03-27T14:50:14.751Z,22.10
2023-03-27T14:53:10.172Z,22.00
2023-03-27T14:56:11.884Z,22.00
2023-03-27T14:59:07.972Z,22.00
2023-03-27T15:02:02.946Z,22.00
2023-03-27T15:04:58.125Z,21.90
2023-03-27T15:07:52.065Z,21.90
2023-03-27T15:10:51.899Z,21.90
2023-03-27T15:13:48.231Z,21.80
2023-03-27T15:16:42.361Z,21.90
2023-03-27T15:19:43.125Z,21.80
2023-03-27T15:22:40.498Z,21.80
2023-03-27T15:25:38.788Z,21.80
2023-03-27T15:28:37.974Z,21.80
2023-03-27T15:31:34.621Z,21.70
2023-03-27T15:34:35.117Z,21.70
2023-03-27T15:37:30.459Z,21.70
2023-03-27T15:40:42.552Z,21.60
2023-03-27T15:43:35.630Z,21.60
2023-03-27T15:46:45.249Z,21.60
2023-03-27T15:49:41.929Z,21.60
2023-03-27T15:52:35.206Z,21.60
2023-03-27T15:55:36.363Z,21.60
2023-03-27T15:58:35.352Z,21.50
2023-03-27T16:01:32.575Z,21.50
2023-03-27T16:04:32.909Z,21.50
2023-03-27T16:07:30.174Z,21.50
2023-03-27T16:10:31.407Z,21.50
2023-03-27T16:13:34.324Z,21.50
2023-03-27T16:16:29.347Z,21.50
2023-03-27T16:19:22.823Z,21.50
2023-03-27T16:22:20.332Z,21.50
2023-03-27T16:25:14.095Z,21.50
2023-03-27T16:28:09.430Z,21.50
2023-03-27T16:31:11.780Z,21.40
2023-03-27T16:34:12.298Z,21.40
2023-03-27T16:37:17.909Z,21.40
2023-03-27T16:40:12.366Z,21.40
2023-03-27T16:43:05.951Z,21.40
2023-03-27T16:45:59.147Z,21.30
2023-03-27T16:48:54.172Z,21.30
2023-03-27T16:51:47.602Z,21.30
2023-03-27T16:54:42.558Z,21.30
2023-03-27T16:57:35.992Z,21.30
2023-03-27T17:00:28.974Z,21.30
2023-03-27T17:03:21.990Z,21.30
2023-03-27T17:06:17.537Z,21.30
2023-03-27T17:09:12.408Z,21.20
2023-03-27T17:12:07.184Z,21.20
2023-03-27T17:15:00.979Z,21.20
2023-03-27T17:17:54.073Z,21.30
2023-03-27T17:20:47.141Z,21.50
2023-03-27T17:23:41.024Z,21.60
2023-03-27T17:26:35.940Z,21.70
2023-03-27T17:29:30.508Z,21.80
2023-03-27T17:32:23.677Z,21.90
2023-03-27T17:35:17.134Z,21.90
2023-03-27T17:38:10.217Z,21.90
2023-03-27T17:41:04.324Z,22.00
2023-03-27T17:43:57.965Z,22.00
2023-03-27T17:46:52.295Z,22.10
2023-03-27T17:49:45.880Z,22.10
2023-03-27T17:52:38.927Z,22.20
2023-03-27T17:55:31.800Z,22.20
2023-03-27T17:58:27.112Z,22.20
2023-03-27T18:01:22.057Z,22.20
2023-03-27T18:04:17.456Z,22.20
2023-03-27T18:07:10.903Z,22.20
2023-03-27T18:10:04.505Z,22.10
2023-03-27T18:12:57.928Z,22.10
2023-03-27T18:15:55.327Z,22.10
2023-03-27T18:18:48.829Z,22.00
2023-03-27T18:21:43.617Z,22.00
2023-03-27T18:24:36.895Z,22.00
2023-03-27T18:27:30.196Z,21.90
2023-03-27T18:30:23.777Z,21.90
2023-03-27T18:33:17.560Z,21.80
2023-03-27T18:36:11.799Z,21.80
2023-03-27T18:39:06.690Z,21.80
2023-03-27T18:42:01.531Z,21.80
2023-03-27T18:44:55.189Z,21.70
2023-03-27T18:47:47.933Z,21.70
2023-03-27T18:50:42.611Z,21.60
2023-03-27T18:53:35.758Z,21.60
2023-03-27T18:56:30.143Z,21.60
2023-03-27T18:59:23.017Z,21.50
2023-03-27T19:02:16.986Z,21.50
2023-03-27T19:05:11.205Z,21.50
2023-03-27T19:08:04.368Z,21.50
2023-03-27T19:10:58.535Z,21.50
2023-03-27T19:13:53.504Z,21.50
2023-03-27T19:16:47.017Z,21.40
2023-03-27T19:19:40.406Z,21.50
2023-03-27T19:22:34.188Z,21.40
2023-03-27T19:25:27.555Z,21.40
2023-03-27T19:28:21.437Z,21.40
2023-03-27T19:31:16.876Z,21.40
2023-03-27T19:34:09.901Z,21.40
2023-03-27T19:37:03.730Z,21.40
2023-03-27T19:39:58.730Z,21.30
2023-03-27T19:42:52.479Z,21.30
2023-03-27T19:46:04.453Z,21.30
2023-03-27T19:49:08.966Z,21.30
2023-03-27T19:52:02.279Z,21.30
2023-03-27T19:54:56.215Z,21.20
2023-03-27T19:57:49.234Z,21.20
2023-03-27T20:00:44.358Z,21.20
2023-03-27T20:03:39.730Z,21.20
2023-03-27T20:06:34.227Z,21.20
2023-03-27T20:09:27.042Z,21.20
2023-03-27T20:12:21.163Z,21.20
2023-03-27T20:15:14.366Z,21.10
2023-03-27T20:18:08.461Z,21.10
2023-03-27T20:21:04.524Z,21.10
2023-03-27T20:23:59.639Z,21.00
2023-03-27T20:26:57.006Z,21.00
2023-03-27T20:29:52.035Z,21.00
2023-03-27T20:32:45.632Z,20.90
2023-03-27T20:35:41.719Z,20.90
2023-03-27T20:38:36.549Z,20.90
2023-03-27T20:41:31.987Z,20.80
2023-03-27T20:44:34.819Z,20.80
2023-03-27T20:47:39.038Z,20.80
2023-03-27T20:50:35.015Z,20.70
2023-03-27T20:53:32.430Z,20.70
2023-03-27T20:56:27.005Z,20.70
2023-03-27T20:59:21.678Z,20.70
2023-03-27T21:02:18.372Z,20.60
2023-03-27T21:05:12.547Z,20.60
2023-03-27T21:08:07.197Z,20.60
2023-03-27T21:11:00.396Z,20.60
2023-03-27T21:13:54.015Z,20.60
2023-03-27T21:16:48.786Z,20.60
2023-03-27T21:19:41.728Z,20.50
2023-03-27T21:22:35.516Z,20.50
2023-03-27T21:25:28.835Z,20.50
2023-03-27T21:28:21.922Z,20.50
2023-03-27T21:31:15.459Z,20.50
2023-03-27T21:34:10.895Z,20.40
2023-03-27T21:37:04.021Z,20.40
2023-03-27T21:39:57.355Z,20.40
2023-03-27T21:42:50.214Z,20.40
2023-03-27T21:45:43.198Z,20.40
2023-03-27T21:48:36.497Z,20.40
2023-03-27T21:51:31.897Z,20.40
2023-03-27T21:54:24.849Z,20.30
2023-03-27T21:57:18.543Z,20.30
2023-03-27T22:00:14.331Z,20.30
2023-03-27T22:03:07.394Z,20.30
2023-03-27T22:06:11.824Z,20.30
2023-03-27T22:09:08.064Z,20.30
2023-03-27T22:12:01.038Z,20.20
2023-03-27T22:14:54.104Z,20.20
2023-03-27T22:17:47.073Z,20.20
2023-03-27T22:20:40.816Z,20.20
2023-03-27T22:23:34.065Z,20.20
2023-03-27T22:26:31.658Z,20.20
2023-03-27T22:29:25.062Z,20.20
2023-03-27T22:32:18.158Z,20.20
2023-03-27T22:35:11.969Z,20.10
2023-03-27T22:38:05.217Z,20.10
2023-03-27T22:40:57.965Z,20.10
2023-03-27T22:43:52.484Z,20.20
2023-03-27T22:46:46.076Z,20.10
2023-03-27T22:49:39.379Z,20.10
2023-03-27T22:52:32.545Z,20.10
2023-03-27T22:55:27.255Z,20.10
2023-03-27T22:58:21.022Z,20.00
2023-03-27T23:01:15.689Z,20.00
2023-03-27T23:04:09.131Z,20.00
2023-03-27T23:07:02.346Z,20.00
2023-03-27T23:09:55.915Z,20.00
2023-03-27T23:12:49.150Z,20.00
2023-03-27T23:15:42.248Z,20.00
2023-03-27T23:18:36.785Z,20.00
2023-03-27T23:21:30.216Z,20.00
2023-03-27T23:24:23.286Z,20.00
2023-03-27T23:27:16.096Z,19.90
2023-03-27T23:30:10.736Z,19.90
2023-03-27T23:33:03.964Z,19.90
2023-03-27T23:36:05.070Z,19.90
2023-03-27T23:38:58.429Z,19.90
2023-03-27T23:41:51.263Z,19.90
2023-03-27T23:44:44.238Z,19.90
2023-03-27T23:47:37.032Z,19.90
2023-03-27T23:50:30.199Z,19.90
2023-03-27T23:53:26.440Z,19.90
2023-03-27T23:56:19.228Z,19.80
2023-03-27T23:59:12.061Z,19.90
